sensor_id;sensor_type;location;lat;lon;timestamp;pressure;altitude;pressure_sealevel;temperature;humidity
15193;BME280;7697;51.630;7.484;2023-04-16T00:03:27;101159.44;;;9.32;100.00
15193;BME280;7697;51.630;7.484;2023-04-16T00:08:29;101175.25;;;9.40;100.00
15193;BME280;7697;51.630;7.484;2023-04-16T00:13:32;101186.63;;;9.40;100.00
15193;BME280;7697;51.630;7.484;2023-04-16T00:18:34;101182.34;;;9.39;100.00
15193;BME280;7697;51.630;7.484;2023-04-16T00:23:36;101176.94;;;9.33;100.00
15193;BME280;7697;51.630;7.484;2023-04-16T00:28:40;101182.56;;;9.38;100.00
15193;BME280;7697;51.630;7.484;2023-04-16T00:33:41;101189.28;;;9.40;100.00
15193;BME280;7697;51.630;7.484;2023-04-16T00:38:43;101185.00;;;9.39;100.00
15193;BME280;7697;51.630;7.484;2023-04-16T00:43:46;101189.13;;;9.42;100.00
15193;BME280;7697;51.630;7.484;2023-04-16T00:48:49;101194.22;;;9.44;100.00
15193;BME280;7697;51.630;7.484;2023-04-16T00:53:52;101180.91;;;9.37;100.00
15193;BME280;7697;51.630;7.484;2023-04-16T00:58:55;101189.28;;;9.40;100.00
15193;BME280;7697;51.630;7.484;2023-04-16T01:03:57;101181.72;;;9.37;100.00
15193;BME280;7697;51.630;7.484;2023-04-16T01:08:59;101180.25;;;9.35;100.00
15193;BME280;7697;51.630;7.484;2023-04-16T01:14:02;101184.88;;;9.33;100.00
15193;BME280;7697;51.630;7.484;2023-04-16T01:19:04;101199.34;;;9.45;100.00
15193;BME280;7697;51.630;7.484;2023-04-16T01:24:07;101196.22;;;9.41;100.00
15193;BME280;7697;51.630;7.484;2023-04-16T01:29:09;101193.75;;;9.40;100.00
15193;BME280;7697;51.630;7.484;2023-04-16T01:34:11;101202.97;;;9.44;100.00
15193;BME280;7697;51.630;7.484;2023-04-16T01:39:14;101208.78;;;9.39;100.00
15193;BME280;7697;51.630;7.484;2023-04-16T01:44:18;101204.31;;;9.40;100.00
15193;BME280;7697;51.630;7.484;2023-04-16T01:49:21;101203.88;;;9.36;100.00
15193;BME280;7697;51.630;7.484;2023-04-16T01:54:24;101211.31;;;9.33;100.00
15193;BME280;7697;51.630;7.484;2023-04-16T01:59:26;101225.66;;;9.38;100.00
15193;BME280;7697;51.630;7.484;2023-04-16T02:04:28;101211.84;;;9.28;100.00
15193;BME280;7697;51.630;7.484;2023-04-16T02:09:33;101212.31;;;9.32;100.00
15193;BME280;7697;51.630;7.484;2023-04-16T02:14:35;101211.97;;;9.35;100.00
15193;BME280;7697;51.630;7.484;2023-04-16T02:19:36;101211.63;;;9.38;100.00
15193;BME280;7697;51.630;7.484;2023-04-16T02:24:40;101220.38;;;9.38;100.00
15193;BME280;7697;51.630;7.484;2023-04-16T02:29:42;101212.63;;;9.37;100.00
15193;BME280;7697;51.630;7.484;2023-04-16T02:34:44;101207.63;;;9.42;100.00
15193;BME280;7697;51.630;7.484;2023-04-16T02:39:47;101208.00;;;9.39;100.00
15193;BME280;7697;51.630;7.484;2023-04-16T02:44:49;101211.91;;;9.43;100.00
15193;BME280;7697;51.630;7.484;2023-04-16T02:49:50;101210.75;;;9.46;100.00
15193;BME280;7697;51.630;7.484;2023-04-16T02:54:54;101199.19;;;9.47;100.00
15193;BME280;7697;51.630;7.484;2023-04-16T02:59:55;101217.50;;;9.48;100.00
15193;BME280;7697;51.630;7.484;2023-04-16T03:04:57;101222.44;;;9.51;100.00
15193;BME280;7697;51.630;7.484;2023-04-16T03:10:01;101211.84;;;9.51;100.00
15193;BME280;7697;51.630;7.484;2023-04-16T03:15:03;101220.09;;;9.56;100.00
15193;BME280;7697;51.630;7.484;2023-04-16T03:20:06;101208.22;;;9.52;100.00
15193;BME280;7697;51.630;7.484;2023-04-16T03:25:11;101216.78;;;9.54;100.00
15193;BME280;7697;51.630;7.484;2023-04-16T03:30:13;101230.28;;;9.59;100.00
15193;BME280;7697;51.630;7.484;2023-04-16T03:35:15;101222.91;;;9.55;100.00
15193;BME280;7697;51.630;7.484;2023-04-16T03:40:19;101231.78;;;9.62;100.00
15193;BME280;7697;51.630;7.484;2023-04-16T03:45:21;101229.13;;;9.62;100.00
15193;BME280;7697;51.630;7.484;2023-04-16T03:50:23;101222.09;;;9.54;100.00
15193;BME280;7697;51.630;7.484;2023-04-16T03:55:27;101231.78;;;9.62;100.00
15193;BME280;7697;51.630;7.484;2023-04-16T04:00:29;101223.66;;;9.63;100.00
15193;BME280;7697;51.630;7.484;2023-04-16T04:05:35;101236.34;;;9.68;100.00
15193;BME280;7697;51.630;7.484;2023-04-16T04:10:38;101216.91;;;9.61;100.00
15193;BME280;7697;51.630;7.484;2023-04-16T04:15:40;101221.03;;;9.63;100.00
15193;BME280;7697;51.630;7.484;2023-04-16T04:20:43;101222.69;;;9.64;100.00
15193;BME280;7697;51.630;7.484;2023-04-16T04:25:47;101242.78;;;9.73;100.00
15193;BME280;7697;51.630;7.484;2023-04-16T04:30:48;101243.78;;;9.72;100.00
15193;BME280;7697;51.630;7.484;2023-04-16T04:35:50;101238.16;;;9.67;100.00
15193;BME280;7697;51.630;7.484;2023-04-16T04:40:53;101253.97;;;9.75;100.00
15193;BME280;7697;51.630;7.484;2023-04-16T04:45:55;101252.69;;;9.71;100.00
15193;BME280;7697;51.630;7.484;2023-04-16T04:50:57;101264.56;;;9.75;100.00
15193;BME280;7697;51.630;7.484;2023-04-16T04:56:00;101270.31;;;9.79;100.00
15193;BME280;7697;51.630;7.484;2023-04-16T05:01:02;101272.97;;;9.79;100.00
15193;BME280;7697;51.630;7.484;2023-04-16T05:06:04;101263.56;;;9.76;100.00
15193;BME280;7697;51.630;7.484;2023-04-16T05:11:07;101272.97;;;9.79;100.00
15193;BME280;7697;51.630;7.484;2023-04-16T05:16:10;101279.56;;;9.83;100.00
15193;BME280;7697;51.630;7.484;2023-04-16T05:21:12;101300.19;;;9.88;100.00
15193;BME280;7697;51.630;7.484;2023-04-16T05:26:15;101299.19;;;9.89;100.00
15193;BME280;7697;51.630;7.484;2023-04-16T05:31:17;101296.72;;;9.87;100.00
15193;BME280;7697;51.630;7.484;2023-04-16T05:36:19;101297.53;;;9.88;100.00
15193;BME280;7697;51.630;7.484;2023-04-16T05:41:26;101303.31;;;9.91;100.00
15193;BME280;7697;51.630;7.484;2023-04-16T05:46:28;101310.94;;;9.86;100.00
15193;BME280;7697;51.630;7.484;2023-04-16T05:51:29;101313.41;;;9.88;100.00
15193;BME280;7697;51.630;7.484;2023-04-16T05:56:33;101320.63;;;9.94;100.00
15193;BME280;7697;51.630;7.484;2023-04-16T06:01:34;101336.00;;;9.98;100.00
15193;BME280;7697;51.630;7.484;2023-04-16T06:06:37;101342.47;;;9.96;100.00
15193;BME280;7697;51.630;7.484;2023-04-16T06:11:41;101338.00;;;9.96;100.00
15193;BME280;7697;51.630;7.484;2023-04-16T06:16:42;101336.47;;;10.02;100.00
15193;BME280;7697;51.630;7.484;2023-04-16T06:21:44;101338.94;;;10.03;100.00
15193;BME280;7697;51.630;7.484;2023-04-16T06:26:48;101351.16;;;10.04;100.00
15193;BME280;7697;51.630;7.484;2023-04-16T06:31:50;101348.34;;;10.06;100.00
15193;BME280;7697;51.630;7.484;2023-04-16T06:36:52;101352.97;;;10.04;100.00
15193;BME280;7697;51.630;7.484;2023-04-16T06:41:56;101348.16;;;10.07;100.00
15193;BME280;7697;51.630;7.484;2023-04-16T06:46:58;101359.25;;;10.11;100.00
15193;BME280;7697;51.630;7.484;2023-04-16T06:52:01;101356.59;;;10.11;100.00
15193;BME280;7697;51.630;7.484;2023-04-16T06:57:04;101363.34;;;10.13;100.00
15193;BME280;7697;51.630;7.484;2023-04-16T07:02:07;101382.84;;;10.21;100.00
15193;BME280;7697;51.630;7.484;2023-04-16T07:07:09;101377.91;;;10.18;100.00
15193;BME280;7697;51.630;7.484;2023-04-16T07:12:12;101391.16;;;10.18;100.00
15193;BME280;7697;51.630;7.484;2023-04-16T07:17:14;101377.06;;;10.17;100.00
15193;BME280;7697;51.630;7.484;2023-04-16T07:22:16;101390.53;;;10.30;100.00
15193;BME280;7697;51.630;7.484;2023-04-16T07:27:19;101399.47;;;10.29;100.00
15193;BME280;7697;51.630;7.484;2023-04-16T07:32:21;101404.78;;;10.29;100.00
15193;BME280;7697;51.630;7.484;2023-04-16T07:37:23;101396.47;;;10.32;100.00
15193;BME280;7697;51.630;7.484;2023-04-16T07:42:26;101412.19;;;10.34;100.00
15193;BME280;7697;51.630;7.484;2023-04-16T07:47:28;101404.44;;;10.32;100.00
15193;BME280;7697;51.630;7.484;2023-04-16T07:52:30;101404.09;;;10.35;100.00
15193;BME280;7697;51.630;7.484;2023-04-16T07:57:33;101418.97;;;10.36;100.00
15193;BME280;7697;51.630;7.484;2023-04-16T08:02:35;101415.50;;;10.36;100.00
15193;BME280;7697;51.630;7.484;2023-04-16T08:07:37;101419.44;;;10.40;100.00
15193;BME280;7697;51.630;7.484;2023-04-16T08:12:40;101423.91;;;10.39;100.00
15193;BME280;7697;51.630;7.484;2023-04-16T08:17:42;101426.69;;;10.46;100.00
15193;BME280;7697;51.630;7.484;2023-04-16T08:22:44;101440.13;;;10.59;100.00
15193;BME280;7697;51.630;7.484;2023-04-16T08:27:47;101451.66;;;10.66;100.00
15193;BME280;7697;51.630;7.484;2023-04-16T08:32:50;101453.41;;;10.74;100.00
15193;BME280;7697;51.630;7.484;2023-04-16T08:37:53;101460.13;;;10.84;100.00
15193;BME280;7697;51.630;7.484;2023-04-16T08:43:00;101472.84;;;10.89;100.00
15193;BME280;7697;51.630;7.484;2023-04-16T08:48:04;101468.72;;;10.86;100.00
15193;BME280;7697;51.630;7.484;2023-04-16T08:53:09;101470.13;;;10.97;100.00
15193;BME280;7697;51.630;7.484;2023-04-16T08:58:14;101477.28;;;11.11;100.00
15193;BME280;7697;51.630;7.484;2023-04-16T09:03:16;101485.13;;;11.19;100.00
15193;BME280;7697;51.630;7.484;2023-04-16T09:08:20;101493.00;;;11.27;100.00
15193;BME280;7697;51.630;7.484;2023-04-16T09:13:24;101479.31;;;11.39;99.76
15193;BME280;7697;51.630;7.484;2023-04-16T09:18:26;101486.56;;;11.45;100.00
15193;BME280;7697;51.630;7.484;2023-04-16T09:23:28;101487.91;;;11.55;99.43
15193;BME280;7697;51.630;7.484;2023-04-16T09:28:39;101501.66;;;11.59;99.02
15193;BME280;7697;51.630;7.484;2023-04-16T09:33:42;101502.19;;;11.69;98.70
15193;BME280;7697;51.630;7.484;2023-04-16T09:38:48;101506.88;;;11.82;99.25
15193;BME280;7697;51.630;7.484;2023-04-16T09:43:56;101502.84;;;12.00;98.31
15193;BME280;7697;51.630;7.484;2023-04-16T09:49:04;101511.22;;;12.19;98.04
15193;BME280;7697;51.630;7.484;2023-04-16T09:54:06;101511.28;;;12.40;95.98
15193;BME280;7697;51.630;7.484;2023-04-16T09:59:15;101516.13;;;12.36;95.54
15193;BME280;7697;51.630;7.484;2023-04-16T10:04:17;101511.41;;;12.53;94.13
15193;BME280;7697;51.630;7.484;2023-04-16T10:09:21;101519.28;;;12.61;95.19
15193;BME280;7697;51.630;7.484;2023-04-16T10:14:24;101518.69;;;12.66;94.71
15193;BME280;7697;51.630;7.484;2023-04-16T10:19:26;101525.22;;;12.85;94.18
15193;BME280;7697;51.630;7.484;2023-04-16T10:24:32;101517.72;;;13.16;93.85
15193;BME280;7697;51.630;7.484;2023-04-16T10:29:36;101519.97;;;13.40;91.60
15193;BME280;7697;51.630;7.484;2023-04-16T10:34:39;101525.31;;;13.40;90.15
15193;BME280;7697;51.630;7.484;2023-04-16T10:39:41;101534.47;;;13.38;91.81
15193;BME280;7697;51.630;7.484;2023-04-16T10:44:45;101518.06;;;13.34;89.92
15193;BME280;7697;51.630;7.484;2023-04-16T10:49:47;101516.41;;;13.33;90.08
15193;BME280;7697;51.630;7.484;2023-04-16T10:54:49;101521.47;;;13.49;89.31
15193;BME280;7697;51.630;7.484;2023-04-16T10:59:56;101509.75;;;13.78;88.68
15193;BME280;7697;51.630;7.484;2023-04-16T11:05:00;101508.81;;;14.47;85.88
15193;BME280;7697;51.630;7.484;2023-04-16T11:10:03;101513.81;;;14.15;86.70
15193;BME280;7697;51.630;7.484;2023-04-16T11:15:08;101502.69;;;14.05;86.96
15193;BME280;7697;51.630;7.484;2023-04-16T11:20:15;101508.13;;;14.32;86.70
15193;BME280;7697;51.630;7.484;2023-04-16T11:25:20;101497.44;;;14.32;84.08
15193;BME280;7697;51.630;7.484;2023-04-16T11:30:29;101503.69;;;14.39;83.89
15193;BME280;7697;51.630;7.484;2023-04-16T11:35:31;101515.41;;;14.77;81.98
15193;BME280;7697;51.630;7.484;2023-04-16T11:40:33;101521.81;;;15.16;82.35
15193;BME280;7697;51.630;7.484;2023-04-16T11:45:36;101519.50;;;14.60;83.41
15193;BME280;7697;51.630;7.484;2023-04-16T11:50:38;101509.47;;;14.55;83.85
15193;BME280;7697;51.630;7.484;2023-04-16T11:55:42;101509.06;;;14.72;83.29
15193;BME280;7697;51.630;7.484;2023-04-16T12:00:47;101504.34;;;14.67;82.39
15193;BME280;7697;51.630;7.484;2023-04-16T12:05:49;101507.41;;;14.77;81.40
15193;BME280;7697;51.630;7.484;2023-04-16T12:10:53;101519.72;;;14.78;80.75
15193;BME280;7697;51.630;7.484;2023-04-16T12:15:57;101523.41;;;14.77;81.32
15193;BME280;7697;51.630;7.484;2023-04-16T12:21:03;101525.47;;;14.62;81.77
15193;BME280;7697;51.630;7.484;2023-04-16T12:26:08;101529.97;;;14.55;81.74
15193;BME280;7697;51.630;7.484;2023-04-16T12:31:12;101531.59;;;14.56;82.31
15193;BME280;7697;51.630;7.484;2023-04-16T12:36:18;101525.84;;;14.59;81.95
15193;BME280;7697;51.630;7.484;2023-04-16T12:41:20;101522.59;;;14.57;81.80
15193;BME280;7697;51.630;7.484;2023-04-16T12:46:23;101530.78;;;14.62;82.18
15193;BME280;7697;51.630;7.484;2023-04-16T12:51:25;101523.03;;;14.74;82.16
15193;BME280;7697;51.630;7.484;2023-04-16T12:56:27;101525.50;;;14.88;82.83
15193;BME280;7697;51.630;7.484;2023-04-16T13:01:30;101524.69;;;15.08;82.56
15193;BME280;7697;51.630;7.484;2023-04-16T13:06:35;101526.53;;;15.07;80.69
15193;BME280;7697;51.630;7.484;2023-04-16T13:11:37;101532.50;;;15.29;79.43
15193;BME280;7697;51.630;7.484;2023-04-16T13:16:40;101533.31;;;15.56;78.32
15193;BME280;7697;51.630;7.484;2023-04-16T13:21:42;101527.34;;;15.60;76.02
15193;BME280;7697;51.630;7.484;2023-04-16T13:26:44;101533.25;;;15.75;77.11
15193;BME280;7697;51.630;7.484;2023-04-16T13:31:47;101530.63;;;15.36;77.05
15193;BME280;7697;51.630;7.484;2023-04-16T13:36:49;101525.50;;;15.28;78.56
15193;BME280;7697;51.630;7.484;2023-04-16T13:41:51;101532.06;;;15.45;78.09
15193;BME280;7697;51.630;7.484;2023-04-16T13:46:54;101532.06;;;15.45;77.41
15193;BME280;7697;51.630;7.484;2023-04-16T13:51:56;101531.66;;;15.35;78.50
15193;BME280;7697;51.630;7.484;2023-04-16T13:56:58;101517.06;;;15.31;78.11
15193;BME280;7697;51.630;7.484;2023-04-16T14:02:01;101526.34;;;15.28;77.87
15193;BME280;7697;51.630;7.484;2023-04-16T14:07:04;101519.94;;;15.36;79.11
15193;BME280;7697;51.630;7.484;2023-04-16T14:12:06;101510.72;;;15.32;79.28
15193;BME280;7697;51.630;7.484;2023-04-16T14:17:09;101507.44;;;15.17;76.76
15193;BME280;7697;51.630;7.484;2023-04-16T14:22:11;101505.41;;;14.99;78.63
15193;BME280;7697;51.630;7.484;2023-04-16T14:27:17;101513.19;;;15.14;79.09
15193;BME280;7697;51.630;7.484;2023-04-16T14:32:20;101514.81;;;15.41;78.18
15193;BME280;7697;51.630;7.484;2023-04-16T14:37:22;101517.47;;;15.41;77.80
15193;BME280;7697;51.630;7.484;2023-04-16T14:42:23;101521.38;;;15.52;77.56
15193;BME280;7697;51.630;7.484;2023-04-16T14:47:27;101518.91;;;15.50;77.79
15193;BME280;7697;51.630;7.484;2023-04-16T14:52:29;101513.34;;;15.58;77.71
15193;BME280;7697;51.630;7.484;2023-04-16T14:57:31;101518.31;;;15.55;76.77
15193;BME280;7697;51.630;7.484;2023-04-16T15:02:34;101513.59;;;15.57;76.36
15193;BME280;7697;51.630;7.484;2023-04-16T15:07:39;101530.19;;;15.39;76.40
15193;BME280;7697;51.630;7.484;2023-04-16T15:12:41;101521.38;;;15.32;77.76
15193;BME280;7697;51.630;7.484;2023-04-16T15:17:44;101519.13;;;15.35;75.86
15193;BME280;7697;51.630;7.484;2023-04-16T15:22:46;101520.97;;;15.35;76.40
15193;BME280;7697;51.630;7.484;2023-04-16T15:27:47;101515.25;;;15.38;76.53
15193;BME280;7697;51.630;7.484;2023-04-16T15:32:50;101517.69;;;15.33;76.53
15193;BME280;7697;51.630;7.484;2023-04-16T15:37:54;101527.34;;;15.34;76.46
15193;BME280;7697;51.630;7.484;2023-04-16T15:42:55;101524.69;;;15.27;76.64
15193;BME280;7697;51.630;7.484;2023-04-16T15:47:58;101526.72;;;15.32;76.96
15193;BME280;7697;51.630;7.484;2023-04-16T15:53:00;101532.06;;;15.32;76.82
15193;BME280;7697;51.630;7.484;2023-04-16T15:58:02;101528.38;;;15.26;77.19
15193;BME280;7697;51.630;7.484;2023-04-16T16:03:05;101532.50;;;15.29;76.72
15193;BME280;7697;51.630;7.484;2023-04-16T16:08:08;101526.34;;;15.28;77.54
15193;BME280;7697;51.630;7.484;2023-04-16T16:13:09;101527.13;;;15.35;77.06
15193;BME280;7697;51.630;7.484;2023-04-16T16:18:16;101524.66;;;15.34;76.75
15193;BME280;7697;51.630;7.484;2023-04-16T16:23:18;101530.19;;;15.39;76.82
15193;BME280;7697;51.630;7.484;2023-04-16T16:28:20;101542.34;;;15.35;75.85
15193;BME280;7697;51.630;7.484;2023-04-16T16:33:24;101532.25;;;15.30;76.12
15193;BME280;7697;51.630;7.484;2023-04-16T16:38:27;101533.50;;;15.28;76.20
15193;BME280;7697;51.630;7.484;2023-04-16T16:43:28;101534.94;;;15.30;76.54
15193;BME280;7697;51.630;7.484;2023-04-16T16:48:32;101540.50;;;15.29;76.62
15193;BME280;7697;51.630;7.484;2023-04-16T16:53:33;101544.41;;;15.26;77.15
15193;BME280;7697;51.630;7.484;2023-04-16T16:58:35;101535.97;;;15.23;77.47
15193;BME280;7697;51.630;7.484;2023-04-16T17:03:39;101547.25;;;15.25;77.43
15193;BME280;7697;51.630;7.484;2023-04-16T17:08:40;101548.09;;;15.19;77.41
15193;BME280;7697;51.630;7.484;2023-04-16T17:13:42;101543.16;;;15.16;78.08
15193;BME280;7697;51.630;7.484;2023-04-16T17:18:45;101547.28;;;15.12;77.60
15193;BME280;7697;51.630;7.484;2023-04-16T17:23:47;101534.94;;;14.97;77.83
15193;BME280;7697;51.630;7.484;2023-04-16T17:28:49;101536.97;;;14.95;78.63
15193;BME280;7697;51.630;7.484;2023-04-16T17:33:52;101539.88;;;14.94;79.04
15193;BME280;7697;51.630;7.484;2023-04-16T17:38:54;101541.72;;;14.93;79.48
15193;BME280;7697;51.630;7.484;2023-04-16T17:43:55;101547.47;;;14.90;79.31
15193;BME280;7697;51.630;7.484;2023-04-16T17:48:58;101548.06;;;14.86;79.11
15193;BME280;7697;51.630;7.484;2023-04-16T17:54:00;101549.69;;;14.80;80.27
15193;BME280;7697;51.630;7.484;2023-04-16T17:59:02;101549.25;;;14.77;80.30
15193;BME280;7697;51.630;7.484;2023-04-16T18:04:06;101563.03;;;14.80;80.51
15193;BME280;7697;51.630;7.484;2023-04-16T18:09:07;101559.13;;;14.76;80.73
15193;BME280;7697;51.630;7.484;2023-04-16T18:14:09;101563.03;;;14.67;81.08
15193;BME280;7697;51.630;7.484;2023-04-16T18:19:14;101564.81;;;14.60;81.16
15193;BME280;7697;51.630;7.484;2023-04-16T18:24:16;101579.59;;;14.56;81.30
15193;BME280;7697;51.630;7.484;2023-04-16T18:29:18;101582.03;;;14.51;81.74
15193;BME280;7697;51.630;7.484;2023-04-16T18:34:21;101574.63;;;14.46;82.11
15193;BME280;7697;51.630;7.484;2023-04-16T18:39:24;101580.91;;;15.13;80.74
15193;BME280;7697;51.630;7.484;2023-04-16T18:44:26;101583.41;;;15.21;79.69
15193;BME280;7697;51.630;7.484;2023-04-16T18:49:29;101584.09;;;14.55;82.38
15193;BME280;7697;51.630;7.484;2023-04-16T18:54:31;101594.28;;;14.39;83.15
15193;BME280;7697;51.630;7.484;2023-04-16T18:59:32;101596.06;;;14.32;82.94
15193;BME280;7697;51.630;7.484;2023-04-16T19:04:36;101600.53;;;14.24;83.45
15193;BME280;7697;51.630;7.484;2023-04-16T19:09:38;101596.59;;;14.14;83.79
15193;BME280;7697;51.630;7.484;2023-04-16T19:14:40;101597.72;;;13.92;86.65
15193;BME280;7697;51.630;7.484;2023-04-16T19:19:43;101609.97;;;13.86;88.08
15193;BME280;7697;51.630;7.484;2023-04-16T19:24:45;101609.44;;;13.69;88.69
15193;BME280;7697;51.630;7.484;2023-04-16T19:29:46;101615.13;;;13.60;90.82
15193;BME280;7697;51.630;7.484;2023-04-16T19:34:49;101616.88;;;13.52;91.46
15193;BME280;7697;51.630;7.484;2023-04-16T19:39:51;101628.13;;;13.48;93.21
15193;BME280;7697;51.630;7.484;2023-04-16T19:44:54;101628.72;;;13.22;95.88
15193;BME280;7697;51.630;7.484;2023-04-16T19:49:57;101626.19;;;13.14;97.31
15193;BME280;7697;51.630;7.484;2023-04-16T19:54:59;101633.16;;;13.00;98.19
15193;BME280;7697;51.630;7.484;2023-04-16T20:00:01;101634.75;;;12.95;99.71
15193;BME280;7697;51.630;7.484;2023-04-16T20:05:07;101640.53;;;12.84;99.79
15193;BME280;7697;51.630;7.484;2023-04-16T20:10:09;101640.47;;;12.77;100.00
15193;BME280;7697;51.630;7.484;2023-04-16T20:15:11;101646.88;;;12.83;100.00
15193;BME280;7697;51.630;7.484;2023-04-16T20:20:14;101642.38;;;12.83;100.00
15193;BME280;7697;51.630;7.484;2023-04-16T20:25:17;101637.53;;;12.87;99.75
15193;BME280;7697;51.630;7.484;2023-04-16T20:30:20;101637.34;;;12.88;99.06
15193;BME280;7697;51.630;7.484;2023-04-16T20:35:25;101636.88;;;12.85;99.28
15193;BME280;7697;51.630;7.484;2023-04-16T20:40:27;101641.84;;;12.88;99.10
15193;BME280;7697;51.630;7.484;2023-04-16T20:45:30;101634.03;;;12.86;99.17
15193;BME280;7697;51.630;7.484;2023-04-16T20:50:38;101627.50;;;12.89;99.07
15193;BME280;7697;51.630;7.484;2023-04-16T20:55:41;101633.28;;;12.92;98.37
15193;BME280;7697;51.630;7.484;2023-04-16T21:00:47;101631.19;;;12.88;98.36
15193;BME280;7697;51.630;7.484;2023-04-16T21:05:51;101627.06;;;13.21;98.26
15193;BME280;7697;51.630;7.484;2023-04-16T21:10:53;101637.41;;;13.59;98.07
15193;BME280;7697;51.630;7.484;2023-04-16T21:15:55;101638.03;;;13.33;99.12
15193;BME280;7697;51.630;7.484;2023-04-16T21:20:58;101640.31;;;13.00;99.70
15193;BME280;7697;51.630;7.484;2023-04-16T21:26:00;101638.13;;;12.89;99.52
15193;BME280;7697;51.630;7.484;2023-04-16T21:31:02;101643.44;;;12.89;99.64
15193;BME280;7697;51.630;7.484;2023-04-16T21:36:06;101634.41;;;12.83;99.72
15193;BME280;7697;51.630;7.484;2023-04-16T21:41:07;101644.03;;;12.84;99.99
15193;BME280;7697;51.630;7.484;2023-04-16T21:46:09;101634.97;;;12.78;99.56
15193;BME280;7697;51.630;7.484;2023-04-16T21:51:12;101635.97;;;12.77;99.61
15193;BME280;7697;51.630;7.484;2023-04-16T21:56:15;101629.38;;;12.73;99.28
15193;BME280;7697;51.630;7.484;2023-04-16T22:01:16;101629.13;;;12.68;99.41
15193;BME280;7697;51.630;7.484;2023-04-16T22:06:20;101637.47;;;12.65;99.73
15193;BME280;7697;51.630;7.484;2023-04-16T22:11:21;101631.63;;;12.55;100.00
15193;BME280;7697;51.630;7.484;2023-04-16T22:16:23;101639.34;;;12.50;100.00
15193;BME280;7697;51.630;7.484;2023-04-16T22:21:27;101626.50;;;12.39;100.00
15193;BME280;7697;51.630;7.484;2023-04-16T22:26:29;101627.25;;;12.33;100.00
15193;BME280;7697;51.630;7.484;2023-04-16T22:31:31;101629.28;;;12.31;100.00
15193;BME280;7697;51.630;7.484;2023-04-16T22:36:34;101641.72;;;12.30;100.00
15193;BME280;7697;51.630;7.484;2023-04-16T22:41:35;101631.63;;;12.26;100.00
15193;BME280;7697;51.630;7.484;2023-04-16T22:46:37;101631.19;;;12.22;100.00
15193;BME280;7697;51.630;7.484;2023-04-16T22:51:41;101634.41;;;12.18;100.00
15193;BME280;7697;51.630;7.484;2023-04-16T22:56:43;101643.41;;;12.17;100.00
15193;BME280;7697;51.630;7.484;2023-04-16T23:01:46;101636.78;;;12.13;100.00
15193;BME280;7697;51.630;7.484;2023-04-16T23:06:49;101636.69;;;12.21;100.00
15193;BME280;7697;51.630;7.484;2023-04-16T23:11:51;101641.00;;;12.22;100.00
15193;BME280;7697;51.630;7.484;2023-04-16T23:16:52;101635.44;;;12.17;100.00
15193;BME280;7697;51.630;7.484;2023-04-16T23:21:55;101651.16;;;12.18;100.00
15193;BME280;7697;51.630;7.484;2023-04-16T23:26:57;101649.50;;;12.17;100.00
15193;BME280;7697;51.630;7.484;2023-04-16T23:32:00;101638.78;;;12.11;100.00
15193;BME280;7697;51.630;7.484;2023-04-16T23:37:03;101644.50;;;12.08;100.00
15193;BME280;7697;51.630;7.484;2023-04-16T23:42:06;101654.91;;;12.09;100.00
15193;BME280;7697;51.630;7.484;2023-04-16T23:47:08;101651.91;;;12.12;100.00
15193;BME280;7697;51.630;7.484;2023-04-16T23:52:11;101653.72;;;12.12;100.00
15193;BME280;7697;51.630;7.484;2023-04-16T23:57:13;101646.59;;;12.12;100.00
